createdAt,value
2023-01-30T00:00:58.137Z,39.93
2023-01-30T00:03:25.444Z,46.20
2023-01-30T00:05:52.881Z,39.53
2023-01-30T00:08:20.039Z,40.30
2023-01-30T00:10:46.888Z,39.07
2023-01-30T00:13:14.388Z,39.97
2023-01-30T00:15:43.081Z,36.37
2023-01-30T00:18:10.286Z,45.60
2023-01-30T00:20:38.117Z,39.87
2023-01-30T00:23:05.612Z,38.57
2023-01-30T00:25:32.368Z,43.10
2023-01-30T00:28:00.444Z,39.03
2023-01-30T00:30:27.084Z,42.70
2023-01-30T00:32:55.577Z,36.27
2023-01-30T00:35:22.081Z,40.97
2023-01-30T00:37:48.792Z,39.80
2023-01-30T00:40:15.221Z,34.90
2023-01-30T00:42:44.020Z,36.63
2023-01-30T00:45:11.658Z,34.20
2023-01-30T00:47:38.531Z,36.33
2023-01-30T00:50:05.642Z,36.13
2023-01-30T00:52:32.053Z,35.27
2023-01-30T00:54:58.539Z,36.30
2023-01-30T00:57:24.981Z,41.67
2023-01-30T00:59:51.583Z,40.77
2023-01-30T01:02:18.138Z,39.57
2023-01-30T01:04:44.607Z,36.53
2023-01-30T01:07:12.330Z,41.83
2023-01-30T01:09:39.340Z,44.10
2023-01-30T01:12:06.862Z,40.50
2023-01-30T01:14:33.892Z,43.13
2023-01-30T01:17:00.566Z,39.23
2023-01-30T01:19:28.258Z,45.67
2023-01-30T01:21:54.869Z,37.30
2023-01-30T01:24:21.309Z,41.87
2023-01-30T01:26:49.052Z,44.67
2023-01-30T01:29:17.225Z,38.50
2023-01-30T01:31:44.718Z,38.13
2023-01-30T01:34:12.026Z,36.23
2023-01-30T01:36:54.922Z,32.23
2023-01-30T01:39:21.853Z,35.43
2023-01-30T01:41:48.264Z,34.57
2023-01-30T01:44:14.957Z,34.47
2023-01-30T01:46:55.706Z,35.53
2023-01-30T01:49:35.101Z,33.05
2023-01-30T01:52:05.716Z,36.13
2023-01-30T01:54:47.245Z,36.10
2023-01-30T01:57:40.179Z,34.67
2023-01-30T02:00:08.296Z,35.23
2023-01-30T02:02:37.179Z,34.53
2023-01-30T02:05:04.723Z,33.70
2023-01-30T02:07:41.277Z,44.30
2023-01-30T02:10:12.785Z,40.50
2023-01-30T02:12:41.507Z,44.80
2023-01-30T02:15:08.901Z,36.93
2023-01-30T02:17:35.482Z,34.23
2023-01-30T02:20:25.155Z,39.63
2023-01-30T02:23:07.953Z,34.40
2023-01-30T02:25:58.500Z,33.37
2023-01-30T02:28:43.954Z,39.55
2023-01-30T02:31:47.483Z,38.33
2023-01-30T02:34:41.933Z,36.20
2023-01-30T02:37:31.799Z,31.93
2023-01-30T02:40:23.515Z,30.63
2023-01-30T02:42:52.775Z,33.33
2023-01-30T02:45:42.111Z,29.07
2023-01-30T02:48:24.778Z,31.77
2023-01-30T02:50:59.150Z,35.43
2023-01-30T02:53:26.062Z,31.93
2023-01-30T02:55:52.503Z,37.37
2023-01-30T02:58:22.952Z,29.67
2023-01-30T03:01:27.210Z,31.48
2023-01-30T03:04:22.147Z,29.30
2023-01-30T03:07:01.471Z,32.83
2023-01-30T03:09:33.535Z,32.93
2023-01-30T03:12:10.054Z,31.47
2023-01-30T03:14:51.690Z,31.33
2023-01-30T03:17:22.469Z,30.93
2023-01-30T03:22:15.529Z,33.50
2023-01-30T03:24:42.192Z,33.30
2023-01-30T03:27:13.210Z,40.23
2023-01-30T03:29:40.451Z,40.80
2023-01-30T03:32:07.369Z,40.07
2023-01-30T03:34:33.940Z,33.37
2023-01-30T03:37:02.098Z,34.57
2023-01-30T03:39:28.857Z,36.60
2023-01-30T03:41:55.583Z,32.30
2023-01-30T03:44:22.120Z,32.47
2023-01-30T03:46:48.850Z,28.23
2023-01-30T03:49:15.655Z,32.43
2023-01-30T03:51:42.115Z,27.83
2023-01-30T03:54:08.626Z,28.03
2023-01-30T03:56:35.025Z,30.60
2023-01-30T03:59:01.628Z,29.40
2023-01-30T04:01:28.600Z,28.20
2023-01-30T04:03:58.166Z,27.87
2023-01-30T04:06:24.697Z,26.20
2023-01-30T04:08:55.237Z,30.33
2023-01-30T04:11:21.900Z,26.52
2023-01-30T04:13:48.667Z,28.93
2023-01-30T04:16:17.915Z,25.67
2023-01-30T04:18:44.625Z,26.37
2023-01-30T04:21:11.555Z,31.03
2023-01-30T04:23:38.023Z,31.83
2023-01-30T04:26:05.756Z,31.90
2023-01-30T04:28:32.715Z,31.10
2023-01-30T04:30:59.436Z,29.63
2023-01-30T04:33:26.965Z,29.00
2023-01-30T04:35:54.966Z,29.43
2023-01-30T04:38:22.845Z,27.37
2023-01-30T04:40:50.427Z,25.50
2023-01-30T04:43:17.091Z,21.43
2023-01-30T04:45:47.092Z,23.73
2023-01-30T04:48:13.720Z,27.30
2023-01-30T04:50:41.672Z,26.40
2023-01-30T04:53:08.583Z,27.67
2023-01-30T04:55:35.380Z,25.57
2023-01-30T04:58:01.897Z,26.70
2023-01-30T05:00:29.048Z,24.63
2023-01-30T05:02:55.504Z,22.80
2023-01-30T05:05:26.738Z,22.20
2023-01-30T05:07:54.824Z,24.57
2023-01-30T05:10:21.980Z,17.33
2023-01-30T05:12:48.473Z,20.33
2023-01-30T05:15:15.251Z,21.57
2023-01-30T05:17:44.389Z,21.70
2023-01-30T05:20:13.442Z,19.40
2023-01-30T05:22:40.038Z,21.10
2023-01-30T05:25:07.126Z,19.77
2023-01-30T05:27:33.646Z,19.73
2023-01-30T05:30:00.293Z,19.87
2023-01-30T05:32:26.749Z,22.93
2023-01-30T05:34:53.692Z,22.57
2023-01-30T05:37:20.287Z,21.90
2023-01-30T05:39:46.931Z,19.77
2023-01-30T05:42:15.710Z,21.20
2023-01-30T05:44:42.312Z,19.10
2023-01-30T05:47:08.848Z,23.33
2023-01-30T05:49:35.254Z,22.60
2023-01-30T05:52:01.843Z,21.40
2023-01-30T05:54:28.469Z,22.43
2023-01-30T05:56:55.543Z,18.87
2023-01-30T05:59:22.047Z,17.37
2023-01-30T06:01:48.384Z,19.83
2023-01-30T06:04:14.822Z,18.07
2023-01-30T06:06:41.291Z,17.23
2023-01-30T06:09:10.545Z,19.40
2023-01-30T06:11:37.183Z,20.80
2023-01-30T06:14:03.860Z,18.97
2023-01-30T06:16:30.460Z,19.40
2023-01-30T06:18:57.354Z,19.63
2023-01-30T06:21:23.885Z,20.00
2023-01-30T06:23:50.443Z,17.23
2023-01-30T06:26:16.995Z,16.10
2023-01-30T06:28:43.613Z,20.00
2023-01-30T06:31:10.172Z,19.23
2023-01-30T06:33:36.794Z,17.37
2023-01-30T06:36:03.869Z,20.53
2023-01-30T06:38:30.548Z,20.60
2023-01-30T06:40:57.135Z,16.03
2023-01-30T06:43:23.763Z,18.20
2023-01-30T06:45:50.335Z,18.87
2023-01-30T06:48:17.016Z,16.03
2023-01-30T06:50:46.623Z,18.33
2023-01-30T06:53:13.091Z,18.30
2023-01-30T06:55:40.217Z,16.47
2023-01-30T06:58:09.423Z,16.80
2023-01-30T07:00:38.120Z,24.83
2023-01-30T07:03:04.736Z,18.17
2023-01-30T07:05:31.271Z,14.97
2023-01-30T07:07:57.757Z,16.10
2023-01-30T07:10:24.480Z,14.93
2023-01-30T07:12:51.055Z,17.37
2023-01-30T07:15:18.008Z,15.53
2023-01-30T07:17:44.611Z,18.87
2023-01-30T07:20:11.438Z,18.63
2023-01-30T07:22:38.128Z,14.27
2023-01-30T07:25:06.498Z,16.73
2023-01-30T07:27:33.882Z,17.03
2023-01-30T07:30:01.865Z,15.40
2023-01-30T07:32:28.614Z,20.73
2023-01-30T07:34:55.156Z,17.50
2023-01-30T07:37:21.596Z,15.43
2023-01-30T07:39:48.099Z,18.67
2023-01-30T07:42:14.799Z,15.23
2023-01-30T07:44:41.325Z,23.17
2023-01-30T07:47:08.307Z,26.20
2023-01-30T07:49:34.844Z,15.07
2023-01-30T07:52:01.288Z,14.27
2023-01-30T07:54:27.776Z,17.63
2023-01-30T07:56:54.367Z,28.83
2023-01-30T07:59:20.769Z,19.93
2023-01-30T08:01:47.505Z,17.53
2023-01-30T08:04:14.009Z,16.30
2023-01-30T08:06:41.387Z,19.77
2023-01-30T08:09:08.043Z,12.77
2023-01-30T08:11:36.025Z,17.20
2023-01-30T08:14:03.164Z,20.43
2023-01-30T08:16:30.205Z,21.63
2023-01-30T08:18:56.660Z,29.93
2023-01-30T08:21:24.304Z,26.37
2023-01-30T08:23:50.853Z,14.83
2023-01-30T08:26:18.638Z,17.90
2023-01-30T08:28:45.194Z,19.30
2023-01-30T08:31:13.831Z,19.57
2023-01-30T08:33:40.483Z,16.90
2023-01-30T08:36:07.407Z,18.30
2023-01-30T08:38:33.955Z,16.33
2023-01-30T08:41:00.633Z,17.40
2023-01-30T08:43:28.287Z,20.17
2023-01-30T08:45:55.443Z,14.93
2023-01-30T08:48:22.442Z,15.13
2023-01-30T08:50:55.239Z,14.00
2023-01-30T08:53:22.519Z,15.40
2023-01-30T08:55:53.101Z,12.53
2023-01-30T08:58:20.831Z,15.82
2023-01-30T09:00:50.642Z,12.67
2023-01-30T09:03:18.473Z,18.23
2023-01-30T09:05:45.261Z,12.20
2023-01-30T09:08:12.501Z,13.83
2023-01-30T09:10:39.041Z,14.77
2023-01-30T09:13:07.808Z,14.07
2023-01-30T09:15:34.465Z,13.13
2023-01-30T09:18:02.056Z,12.23
2023-01-30T09:20:28.551Z,9.57
2023-01-30T09:22:56.216Z,12.43
2023-01-30T09:25:22.826Z,14.43
2023-01-30T09:27:50.492Z,14.97
2023-01-30T09:30:17.842Z,18.50
2023-01-30T09:32:46.008Z,14.20
2023-01-30T09:35:12.476Z,12.60
2023-01-30T09:37:39.127Z,13.00
2023-01-30T09:40:06.475Z,10.87
2023-01-30T09:42:53.684Z,18.03
2023-01-30T09:45:22.574Z,13.27
2023-01-30T09:48:23.618Z,18.05
2023-01-30T09:51:18.254Z,14.43
2023-01-30T09:54:15.659Z,14.17
2023-01-30T09:56:42.573Z,13.73
2023-01-30T10:02:38.778Z,14.73
2023-01-30T10:05:06.609Z,13.17
2023-01-30T10:08:01.626Z,15.90
2023-01-30T10:11:10.451Z,11.47
2023-01-30T10:13:41.033Z,15.60
2023-01-30T10:16:20.157Z,11.65
2023-01-30T10:19:26.175Z,13.67
2023-01-30T10:22:32.820Z,11.33
2023-01-30T10:25:06.003Z,13.60
2023-01-30T10:27:35.116Z,8.87
2023-01-30T10:30:05.990Z,12.00
2023-01-30T10:35:22.279Z,12.20
2023-01-30T10:38:19.579Z,13.90
2023-01-30T10:40:54.857Z,13.97
2023-01-30T10:43:47.496Z,16.20
2023-01-30T10:46:22.579Z,9.13
2023-01-30T10:48:52.733Z,10.53
2023-01-30T10:51:38.335Z,16.02
2023-01-30T10:54:28.324Z,17.02
2023-01-30T10:57:42.066Z,8.10
2023-01-30T11:00:27.059Z,11.17
2023-01-30T11:03:02.145Z,8.57
2023-01-30T11:05:39.121Z,14.73
2023-01-30T11:08:18.204Z,11.82
2023-01-30T11:10:44.759Z,8.87
2023-01-30T11:13:21.010Z,15.52
2023-01-30T11:15:50.941Z,7.05
2023-01-30T11:19:14.017Z,7.77
2023-01-30T11:21:16.726Z,6.90
2023-01-30T11:23:44.189Z,7.97
2023-01-30T11:26:29.495Z,4.60
2023-01-30T11:28:59.711Z,7.03
2023-01-30T11:31:40.932Z,4.93
2023-01-30T11:34:17.105Z,6.83
2023-01-30T11:36:44.354Z,5.77
2023-01-30T11:39:13.720Z,4.63
2023-01-30T11:41:56.197Z,5.80
2023-01-30T11:44:27.549Z,6.80
2023-01-30T11:46:55.009Z,5.47
2023-01-30T11:49:46.765Z,7.23
2023-01-30T11:52:10.898Z,5.60
2023-01-30T11:54:41.687Z,6.90
2023-01-30T11:57:14.189Z,4.70
2023-01-30T11:59:59.245Z,5.83
2023-01-30T12:02:34.480Z,6.20
2023-01-30T12:05:34.458Z,5.83
2023-01-30T12:08:43.108Z,6.93
2023-01-30T12:11:38.764Z,6.80
2023-01-30T12:14:33.955Z,6.00
2023-01-30T12:17:11.771Z,5.53
2023-01-30T12:20:14.152Z,5.07
2023-01-30T12:23:22.414Z,8.17
2023-01-30T12:25:57.230Z,5.93
2023-01-30T12:28:41.513Z,10.95
2023-01-30T12:31:18.989Z,9.07
2023-01-30T12:33:48.094Z,6.03
2023-01-30T12:36:20.484Z,4.80
2023-01-30T12:38:55.876Z,8.47
2023-01-30T12:41:37.587Z,5.13
2023-01-30T12:44:22.523Z,7.88
2023-01-30T12:47:00.018Z,4.77
2023-01-30T12:49:35.702Z,9.33
2023-01-30T12:52:39.551Z,7.10
2023-01-30T12:55:36.723Z,8.83
2023-01-30T12:58:05.551Z,7.97
2023-01-30T13:01:04.925Z,6.80
2023-01-30T13:04:19.001Z,9.10
2023-01-30T13:07:02.211Z,8.67
2023-01-30T13:09:37.731Z,7.07
2023-01-30T13:12:20.147Z,11.03
2023-01-30T13:15:00.831Z,15.03
2023-01-30T13:17:54.718Z,11.43
2023-01-30T13:20:48.336Z,10.87
2023-01-30T13:23:32.984Z,9.57
2023-01-30T13:26:09.044Z,10.57
2023-01-30T13:28:44.184Z,10.40
2023-01-30T13:31:16.068Z,9.60
2023-01-30T13:33:45.632Z,39.00
2023-01-30T13:36:21.233Z,19.57
2023-01-30T13:39:36.603Z,19.10
2023-01-30T13:42:37.435Z,21.93
2023-01-30T13:45:08.532Z,28.40
2023-01-30T13:47:48.939Z,20.00
2023-01-30T13:50:41.560Z,24.85
2023-01-30T13:53:33.955Z,17.33
2023-01-30T13:56:40.938Z,28.93
2023-01-30T13:59:22.168Z,28.67
2023-01-30T14:02:07.685Z,24.70
2023-01-30T14:04:40.570Z,21.03
2023-01-30T14:07:29.707Z,21.90
2023-01-30T14:10:17.934Z,18.53
2023-01-30T14:12:46.584Z,17.67
2023-01-30T14:15:15.936Z,10.63
2023-01-30T14:18:04.751Z,12.80
2023-01-30T14:20:36.902Z,20.97
2023-01-30T14:23:21.193Z,19.07
2023-01-30T14:25:52.626Z,28.17
2023-01-30T14:28:19.151Z,29.80
2023-01-30T14:30:45.655Z,18.30
2023-01-30T14:33:21.215Z,17.13
2023-01-30T14:36:02.811Z,16.07
2023-01-30T14:38:34.488Z,10.83
2023-01-30T14:41:01.049Z,9.80
2023-01-30T14:43:42.884Z,11.83
2023-01-30T14:46:18.211Z,11.57
2023-01-30T14:48:47.776Z,11.83
2023-01-30T14:51:20.403Z,8.60
2023-01-30T14:54:14.872Z,11.73
2023-01-30T14:57:02.952Z,11.53
2023-01-30T14:59:34.340Z,11.00
2023-01-30T15:02:02.982Z,10.83
2023-01-30T15:04:33.268Z,8.20
2023-01-30T15:07:06.423Z,10.52
2023-01-30T15:09:33.943Z,11.43
2023-01-30T15:12:37.163Z,10.23
2023-01-30T15:15:38.228Z,8.90
2023-01-30T15:18:42.295Z,10.80
2023-01-30T15:21:33.469Z,10.07
2023-01-30T15:24:21.234Z,8.73
2023-01-30T15:26:53.756Z,9.60
2023-01-30T15:29:33.132Z,8.80
2023-01-30T15:32:17.637Z,8.90
2023-01-30T15:35:10.438Z,5.73
2023-01-30T15:37:40.325Z,8.57
2023-01-30T15:40:16.283Z,8.90
2023-01-30T15:42:49.132Z,9.50
2023-01-30T15:45:34.540Z,7.53
2023-01-30T15:48:29.006Z,7.60
2023-01-30T15:51:00.200Z,7.57
2023-01-30T15:53:40.125Z,10.17
2023-01-30T15:56:10.601Z,7.47
2023-01-30T15:58:42.403Z,12.23
2023-01-30T16:01:11.361Z,7.37
2023-01-30T16:03:42.766Z,9.50
2023-01-30T16:06:25.288Z,8.20
2023-01-30T16:09:03.516Z,8.57
2023-01-30T16:11:34.644Z,8.57
2023-01-30T16:14:01.250Z,8.67
2023-01-30T16:16:29.161Z,7.40
2023-01-30T16:19:03.002Z,7.70
2023-01-30T16:21:36.923Z,9.50
2023-01-30T16:24:06.640Z,9.83
2023-01-30T16:26:36.245Z,9.93
2023-01-30T16:29:06.342Z,8.83
2023-01-30T16:31:35.833Z,9.73
2023-01-30T16:34:02.822Z,9.60
2023-01-30T16:36:32.964Z,8.63
2023-01-30T16:38:59.436Z,7.90
2023-01-30T16:41:36.285Z,8.60
2023-01-30T16:44:42.024Z,6.87
2023-01-30T16:47:23.515Z,7.83
2023-01-30T16:49:53.432Z,8.60
2023-01-30T16:52:24.980Z,8.33
2023-01-30T16:54:54.251Z,7.80
2023-01-30T16:57:28.480Z,8.07
2023-01-30T16:59:56.465Z,5.97
2023-01-30T17:02:34.112Z,8.90
2023-01-30T17:05:27.262Z,6.97
2023-01-30T17:07:55.258Z,8.97
2023-01-30T17:10:28.013Z,12.00
2023-01-30T17:12:56.292Z,9.07
2023-01-30T17:15:27.570Z,10.60
2023-01-30T17:17:54.076Z,13.47
2023-01-30T17:20:20.730Z,9.80
2023-01-30T17:22:50.412Z,8.77
2023-01-30T17:25:41.763Z,9.13
2023-01-30T17:28:15.784Z,8.13
2023-01-30T17:30:42.787Z,8.77
2023-01-30T17:33:09.230Z,7.93
2023-01-30T17:35:35.844Z,8.93
2023-01-30T17:38:06.316Z,11.52
2023-01-30T17:40:37.971Z,11.73
2023-01-30T17:43:06.440Z,9.63
2023-01-30T17:45:34.131Z,7.97
2023-01-30T17:48:00.885Z,7.20
2023-01-30T17:50:27.404Z,7.60
2023-01-30T17:52:54.102Z,7.43
2023-01-30T17:55:21.105Z,6.90
2023-01-30T17:57:48.567Z,8.90
2023-01-30T18:00:18.407Z,12.00
2023-01-30T18:02:45.380Z,8.05
2023-01-30T18:05:13.502Z,12.27
2023-01-30T18:07:41.026Z,11.87
2023-01-30T18:10:11.992Z,13.50
2023-01-30T18:12:40.114Z,13.00
2023-01-30T18:15:07.255Z,12.17
2023-01-30T18:17:37.036Z,14.73
2023-01-30T18:20:03.665Z,16.27
2023-01-30T18:22:30.059Z,10.63
2023-01-30T18:24:56.543Z,11.87
2023-01-30T18:27:22.960Z,11.60
2023-01-30T18:29:50.646Z,10.53
2023-01-30T18:32:17.068Z,8.20
2023-01-30T18:34:43.933Z,11.10
2023-01-30T18:37:10.450Z,10.33
2023-01-30T18:39:38.842Z,10.30
2023-01-30T18:42:05.507Z,8.60
2023-01-30T18:44:32.288Z,12.17
2023-01-30T18:46:58.919Z,8.03
2023-01-30T18:49:26.384Z,8.93
2023-01-30T18:51:55.618Z,9.07
2023-01-30T18:54:22.089Z,9.23
2023-01-30T18:56:48.677Z,9.50
2023-01-30T18:59:15.167Z,9.17
2023-01-30T19:01:41.859Z,7.67
2023-01-30T19:04:11.055Z,8.63
2023-01-30T19:06:45.125Z,7.90
2023-01-30T19:09:16.675Z,7.90
2023-01-30T19:11:43.089Z,9.43
2023-01-30T19:14:09.660Z,8.43
2023-01-30T19:16:38.828Z,14.80
2023-01-30T19:19:06.740Z,10.20
2023-01-30T19:21:33.926Z,12.20
2023-01-30T19:24:04.704Z,10.57
2023-01-30T19:28:57.571Z,9.60
2023-01-30T19:31:24.370Z,12.50
2023-01-30T19:33:56.394Z,11.70
2023-01-30T19:36:25.282Z,10.33
2023-01-30T19:38:52.509Z,12.33
2023-01-30T19:41:25.220Z,10.17
2023-01-30T19:43:53.704Z,10.37
2023-01-30T19:46:20.701Z,10.33
2023-01-30T19:48:47.938Z,9.13
2023-01-30T19:51:17.849Z,8.47
2023-01-30T19:53:47.457Z,8.77
2023-01-30T19:56:13.970Z,11.00
2023-01-30T19:58:40.623Z,11.07
2023-01-30T20:01:14.088Z,8.97
2023-01-30T20:03:42.135Z,9.57
2023-01-30T20:06:21.221Z,10.47
2023-01-30T20:08:49.633Z,11.47
2023-01-30T20:11:18.254Z,10.73
2023-01-30T20:13:45.971Z,10.60
2023-01-30T20:16:14.830Z,10.67
2023-01-30T20:18:41.789Z,14.73
2023-01-30T20:21:09.446Z,14.53
2023-01-30T20:23:36.658Z,58.27
2023-01-30T20:26:07.403Z,18.10
2023-01-30T20:28:34.750Z,12.30
2023-01-30T20:31:08.445Z,15.93
2023-01-30T20:33:35.503Z,21.38
2023-01-30T20:36:04.233Z,18.63
2023-01-30T20:38:33.303Z,23.42
2023-01-30T20:41:06.120Z,12.37
2023-01-30T20:43:33.975Z,13.47
2023-01-30T20:46:08.881Z,11.93
2023-01-30T20:48:37.366Z,12.97
2023-01-30T20:51:15.923Z,22.70
2023-01-30T20:54:04.201Z,18.70
2023-01-30T20:56:34.918Z,10.43
2023-01-30T20:59:03.429Z,9.15
2023-01-30T21:01:29.963Z,11.77
2023-01-30T21:03:57.167Z,10.23
2023-01-30T21:06:41.263Z,10.13
2023-01-30T21:09:12.555Z,10.60
2023-01-30T21:11:39.618Z,13.23
2023-01-30T21:14:06.337Z,13.47
2023-01-30T21:16:34.595Z,9.40
2023-01-30T21:19:04.508Z,11.37
2023-01-30T21:21:37.664Z,12.50
2023-01-30T21:24:09.539Z,12.52
2023-01-30T21:26:38.517Z,13.60
2023-01-30T21:29:07.007Z,17.13
2023-01-30T21:31:34.724Z,46.00
2023-01-30T21:34:01.666Z,81.97
2023-01-30T21:36:28.752Z,62.17
2023-01-30T21:38:55.553Z,50.90
2023-01-30T21:41:29.812Z,46.43
2023-01-30T21:43:56.580Z,36.30
2023-01-30T21:46:23.303Z,27.63
2023-01-30T21:48:49.972Z,19.20
2023-01-30T21:51:17.357Z,17.47
2023-01-30T21:53:44.021Z,12.63
2023-01-30T21:56:12.758Z,13.43
2023-01-30T21:58:39.150Z,11.33
2023-01-30T22:01:07.570Z,11.30
2023-01-30T22:03:35.629Z,11.40
2023-01-30T22:06:02.065Z,13.57
2023-01-30T22:08:28.822Z,10.53
2023-01-30T22:11:06.387Z,11.73
2023-01-30T22:13:34.270Z,13.13
2023-01-30T22:16:03.001Z,13.03
2023-01-30T22:18:29.880Z,13.70
2023-01-30T22:21:08.506Z,13.10
2023-01-30T22:23:38.586Z,12.47
2023-01-30T22:26:06.209Z,13.70
2023-01-30T22:28:33.513Z,11.27
2023-01-30T22:31:05.786Z,12.87
2023-01-30T22:33:33.088Z,11.90
2023-01-30T22:36:00.859Z,13.00
2023-01-30T22:38:27.807Z,12.17
2023-01-30T22:41:02.820Z,10.90
2023-01-30T22:43:30.573Z,10.13
2023-01-30T22:46:06.143Z,12.13
2023-01-30T22:48:33.463Z,13.20
2023-01-30T22:51:04.055Z,13.43
2023-01-30T22:53:38.396Z,14.15
2023-01-30T22:56:10.601Z,9.10
2023-01-30T22:58:38.205Z,13.97
2023-01-30T23:01:05.113Z,12.50
2023-01-30T23:03:32.278Z,10.90
2023-01-30T23:06:00.067Z,12.93
2023-01-30T23:08:30.194Z,13.97
2023-01-30T23:10:58.302Z,10.20
2023-01-30T23:13:27.218Z,13.13
2023-01-30T23:15:53.622Z,15.73
2023-01-30T23:18:20.007Z,9.87
2023-01-30T23:20:46.843Z,12.20
2023-01-30T23:23:13.435Z,14.40
2023-01-30T23:25:42.407Z,16.00
2023-01-30T23:28:09.151Z,9.47
2023-01-30T23:30:39.089Z,10.45
2023-01-30T23:33:05.605Z,10.83
2023-01-30T23:35:32.873Z,10.70
2023-01-30T23:37:59.274Z,10.33
2023-01-30T23:40:25.739Z,11.90
2023-01-30T23:42:53.418Z,11.07
2023-01-30T23:45:20.292Z,12.83
2023-01-30T23:47:46.899Z,11.80
2023-01-30T23:50:13.456Z,11.67
2023-01-30T23:52:39.951Z,11.50
2023-01-30T23:55:06.939Z,13.30
2023-01-30T23:57:33.380Z,16.20
2023-01-30T23:59:59.837Z,13.40
